SAS1128 ESDF-ESSA
Flight info
| Callsign | SAS1128 |
|---|---|
| Flight time | 0h 49m |
| Altitude | 27000 |
| Route | TEMLI Z330 VIBAR DCT NILUG |
| Aircraft | A320/M-SDE3FGHIRWY/LB1 |
Departure
| Time | 2026-04-24 20:54 |
|---|---|
| Airport | Ronneby Airport (ESDF) |
Arrival
| Time | 2026-04-24 21:44 |
|---|---|
| Airport | Stockholm-Arlanda Airport (ESSA) |
| Time | Latitude | Longitude | Altitude | Speed | Heading |
|---|---|---|---|---|---|
| 2026-04-24 20:05 | 56.25512 | 15.26672 | 182 ft | 0 kts | 212° |
| 2026-04-24 20:48 | 56.25511 | 15.26670 | 181 ft | 0 kts | 220° |
| 2026-04-24 20:48 | 56.25512 | 15.26664 | 181 ft | 1 kts | 256° |
| 2026-04-24 20:48 | 56.25525 | 15.26644 | 181 ft | 4 kts | 340° |
| 2026-04-24 20:48 | 56.25563 | 15.26594 | 181 ft | 9 kts | 290° |
| 2026-04-24 20:49 | 56.25584 | 15.26474 | 181 ft | 11 kts | 304° |
| 2026-04-24 20:49 | 56.25641 | 15.26357 | 182 ft | 13 kts | 307° |
| 2026-04-24 20:49 | 56.25716 | 15.26264 | 183 ft | 15 kts | 6° |
| 2026-04-24 20:49 | 56.25830 | 15.26292 | 182 ft | 18 kts | 9° |
| 2026-04-24 20:50 | 56.25961 | 15.26330 | 181 ft | 21 kts | 9° |
| 2026-04-24 20:50 | 56.26116 | 15.26370 | 180 ft | 23 kts | 8° |
| 2026-04-24 20:50 | 56.26283 | 15.26419 | 183 ft | 25 kts | 9° |
| 2026-04-24 20:50 | 56.26424 | 15.26459 | 191 ft | 21 kts | 8° |
| 2026-04-24 20:51 | 56.26574 | 15.26498 | 195 ft | 22 kts | 8° |
| 2026-04-24 20:51 | 56.26732 | 15.26540 | 186 ft | 25 kts | 9° |
| 2026-04-24 20:51 | 56.26912 | 15.26590 | 185 ft | 27 kts | 8° |
| 2026-04-24 20:51 | 56.27095 | 15.26677 | 189 ft | 23 kts | 26° |
| 2026-04-24 20:52 | 56.27222 | 15.26838 | 194 ft | 19 kts | 39° |
| 2026-04-24 20:52 | 56.27330 | 15.26984 | 189 ft | 16 kts | 26° |
| 2026-04-24 20:52 | 56.27447 | 15.27025 | 194 ft | 18 kts | 8° |
| 2026-04-24 20:52 | 56.27563 | 15.27058 | 188 ft | 15 kts | 10° |
| 2026-04-24 20:53 | 56.27671 | 15.27089 | 202 ft | 12 kts | 4° |
| 2026-04-24 20:53 | 56.27732 | 15.27042 | 200 ft | 8 kts | 318° |
| 2026-04-24 20:53 | 56.27748 | 15.26920 | 195 ft | 13 kts | 264° |
| 2026-04-24 20:53 | 56.27693 | 15.26805 | 188 ft | 15 kts | 187° |
| 2026-04-24 20:54 | 56.27491 | 15.26751 | 188 ft | 60 kts | 188° |
| 2026-04-24 20:54 | 56.26862 | 15.26576 | 186 ft | 119 kts | 188° |
| 2026-04-24 20:54 | 56.25894 | 15.26310 | 224 ft | 157 kts | 189° |
| 2026-04-24 20:54 | 56.24864 | 15.26005 | 820 ft | 149 kts | 191° |
| 2026-04-24 20:55 | 56.23859 | 15.25719 | 1321 ft | 152 kts | 191° |
| 2026-04-24 20:55 | 56.22703 | 15.25420 | 1500 ft | 177 kts | 190° |
| 2026-04-24 20:55 | 56.21430 | 15.25086 | 1916 ft | 189 kts | 194° |
| 2026-04-24 20:55 | 56.20271 | 15.23935 | 2144 ft | 202 kts | 232° |
| 2026-04-24 20:56 | 56.19552 | 15.21673 | 2378 ft | 218 kts | 263° |
| 2026-04-24 20:56 | 56.19676 | 15.18912 | 2728 ft | 234 kts | 295° |
| 2026-04-24 20:56 | 56.20698 | 15.16577 | 3358 ft | 244 kts | 326° |
| 2026-04-24 20:56 | 56.22279 | 15.15397 | 4239 ft | 249 kts | 344° |
| 2026-04-24 20:57 | 56.24012 | 15.15081 | 5132 ft | 256 kts | 4° |
| 2026-04-24 20:57 | 56.25707 | 15.16094 | 5970 ft | 265 kts | 24° |
| 2026-04-24 20:57 | 56.27348 | 15.17662 | 6824 ft | 268 kts | 25° |
| 2026-04-24 20:57 | 56.28995 | 15.19292 | 7677 ft | 271 kts | 25° |
| 2026-04-24 20:58 | 56.30639 | 15.20932 | 8495 ft | 275 kts | 25° |
| 2026-04-24 20:58 | 56.32332 | 15.22617 | 8803 ft | 276 kts | 25° |
| 2026-04-24 20:58 | 56.34002 | 15.24277 | 8883 ft | 275 kts | 25° |
| 2026-04-24 20:58 | 56.35685 | 15.25942 | 8893 ft | 274 kts | 24° |
| 2026-04-24 20:59 | 56.37344 | 15.27580 | 8980 ft | 277 kts | 24° |
| 2026-04-24 20:59 | 56.39043 | 15.29262 | 9823 ft | 277 kts | 24° |
| 2026-04-24 20:59 | 56.40776 | 15.30979 | 10295 ft | 294 kts | 24° |
| 2026-04-24 20:59 | 56.42628 | 15.32803 | 10481 ft | 316 kts | 24° |
| 2026-04-24 21:00 | 56.44616 | 15.34763 | 10864 ft | 330 kts | 25° |
| 2026-04-24 21:00 | 56.46650 | 15.36779 | 11515 ft | 335 kts | 25° |
| 2026-04-24 21:00 | 56.48712 | 15.38834 | 12217 ft | 337 kts | 24° |
| 2026-04-24 21:00 | 56.50756 | 15.40875 | 12912 ft | 341 kts | 24° |
| 2026-04-24 21:01 | 56.52856 | 15.42972 | 13608 ft | 344 kts | 24° |
| 2026-04-24 21:01 | 56.54943 | 15.45054 | 14234 ft | 347 kts | 24° |
| 2026-04-24 21:01 | 56.57090 | 15.47204 | 14861 ft | 349 kts | 24° |
| 2026-04-24 21:01 | 56.59200 | 15.49322 | 15457 ft | 352 kts | 24° |
| 2026-04-24 21:02 | 56.61364 | 15.51491 | 16074 ft | 354 kts | 24° |
| 2026-04-24 21:02 | 56.63531 | 15.53663 | 16666 ft | 357 kts | 24° |
| 2026-04-24 21:02 | 56.65687 | 15.55830 | 16862 ft | 358 kts | 24° |
| 2026-04-24 21:02 | 56.67866 | 15.58025 | 16941 ft | 358 kts | 24° |
| 2026-04-24 21:03 | 56.70077 | 15.60254 | 16914 ft | 358 kts | 24° |
| 2026-04-24 21:03 | 56.72230 | 15.62427 | 16911 ft | 358 kts | 24° |
| 2026-04-24 21:03 | 56.74411 | 15.64631 | 16908 ft | 358 kts | 24° |
| 2026-04-24 21:03 | 56.76575 | 15.66817 | 16909 ft | 358 kts | 24° |
| 2026-04-24 21:04 | 56.78755 | 15.69023 | 16909 ft | 358 kts | 24° |
| 2026-04-24 21:04 | 56.80918 | 15.71221 | 16907 ft | 358 kts | 24° |
| 2026-04-24 21:04 | 56.83102 | 15.73444 | 16905 ft | 358 kts | 24° |
| 2026-04-24 21:04 | 56.85290 | 15.75670 | 16904 ft | 358 kts | 24° |
| 2026-04-24 21:05 | 56.87445 | 15.77861 | 16896 ft | 358 kts | 24° |
| 2026-04-24 21:05 | 56.89619 | 15.80072 | 16901 ft | 358 kts | 24° |
| 2026-04-24 21:05 | 56.91806 | 15.82305 | 16902 ft | 358 kts | 24° |
| 2026-04-24 21:05 | 56.94011 | 15.84561 | 17356 ft | 362 kts | 24° |
| 2026-04-24 21:06 | 56.96191 | 15.86795 | 18007 ft | 364 kts | 24° |
| 2026-04-24 21:06 | 56.98417 | 15.89079 | 18589 ft | 367 kts | 24° |
| 2026-04-24 21:06 | 57.00644 | 15.91366 | 19159 ft | 369 kts | 24° |
| 2026-04-24 21:06 | 57.02899 | 15.93680 | 19728 ft | 372 kts | 24° |
| 2026-04-24 21:07 | 57.05174 | 15.96016 | 20306 ft | 375 kts | 24° |
| 2026-04-24 21:07 | 57.07431 | 15.98342 | 20852 ft | 377 kts | 24° |
| 2026-04-24 21:07 | 57.09742 | 16.00730 | 21388 ft | 380 kts | 23° |
| 2026-04-24 21:07 | 57.12059 | 16.03127 | 21906 ft | 383 kts | 23° |
| 2026-04-24 21:08 | 57.14369 | 16.05521 | 22404 ft | 385 kts | 23° |
| 2026-04-24 21:08 | 57.16720 | 16.07958 | 22899 ft | 388 kts | 23° |
| 2026-04-24 21:08 | 57.19091 | 16.10415 | 23408 ft | 391 kts | 23° |
| 2026-04-24 21:08 | 57.21470 | 16.12880 | 23801 ft | 394 kts | 23° |
| 2026-04-24 21:09 | 57.23839 | 16.15344 | 24200 ft | 396 kts | 23° |
| 2026-04-24 21:09 | 57.26253 | 16.17866 | 24587 ft | 399 kts | 23° |
| 2026-04-24 21:09 | 57.28680 | 16.20412 | 24961 ft | 401 kts | 23° |
| 2026-04-24 21:09 | 57.31121 | 16.22977 | 25334 ft | 403 kts | 23° |
| 2026-04-24 21:10 | 57.33556 | 16.25537 | 25685 ft | 406 kts | 23° |
| 2026-04-24 21:10 | 57.36020 | 16.28117 | 26044 ft | 408 kts | 23° |
| 2026-04-24 21:10 | 57.38508 | 16.30723 | 26404 ft | 410 kts | 23° |
| 2026-04-24 21:10 | 57.41001 | 16.33343 | 26756 ft | 413 kts | 22° |
| 2026-04-24 21:11 | 57.43485 | 16.35961 | 26882 ft | 414 kts | 23° |
| 2026-04-24 21:11 | 57.45999 | 16.38618 | 26908 ft | 414 kts | 23° |
| 2026-04-24 21:11 | 57.48497 | 16.41270 | 26883 ft | 412 kts | 24° |
| 2026-04-24 21:11 | 57.50975 | 16.43906 | 26887 ft | 410 kts | 24° |
| 2026-04-24 21:12 | 57.53453 | 16.46541 | 26880 ft | 410 kts | 24° |
| 2026-04-24 21:12 | 57.55101 | 16.48295 | 26881 ft | 410 kts | 24° |
| 2026-04-24 21:12 | 57.58388 | 16.51793 | 26880 ft | 410 kts | 23° |
| 2026-04-24 21:12 | 57.60872 | 16.54434 | 26880 ft | 410 kts | 23° |
| 2026-04-24 21:13 | 57.63353 | 16.57075 | 26874 ft | 410 kts | 24° |
| 2026-04-24 21:13 | 57.65802 | 16.59688 | 26871 ft | 410 kts | 24° |
| 2026-04-24 21:13 | 57.68304 | 16.62366 | 26868 ft | 410 kts | 24° |
| 2026-04-24 21:13 | 57.70755 | 16.64997 | 26867 ft | 410 kts | 24° |
| 2026-04-24 21:14 | 57.73248 | 16.67682 | 26860 ft | 410 kts | 24° |
| 2026-04-24 21:14 | 57.75701 | 16.70329 | 26865 ft | 410 kts | 24° |
| 2026-04-24 21:14 | 57.77348 | 16.72106 | 26861 ft | 410 kts | 24° |
| 2026-04-24 21:14 | 57.79827 | 16.74783 | 26860 ft | 410 kts | 24° |
| 2026-04-24 21:15 | 57.83112 | 16.78340 | 26856 ft | 410 kts | 24° |
| 2026-04-24 21:15 | 57.84779 | 16.80144 | 26856 ft | 410 kts | 24° |
| 2026-04-24 21:15 | 57.87252 | 16.82825 | 26859 ft | 410 kts | 24° |
| 2026-04-24 21:15 | 57.89726 | 16.85507 | 26856 ft | 410 kts | 24° |
| 2026-04-24 21:16 | 57.92183 | 16.88172 | 26874 ft | 410 kts | 24° |
| 2026-04-24 21:16 | 57.94618 | 16.90820 | 26861 ft | 411 kts | 24° |
| 2026-04-24 21:16 | 57.97111 | 16.93542 | 26695 ft | 409 kts | 24° |
| 2026-04-24 21:16 | 57.99579 | 16.96247 | 26430 ft | 406 kts | 24° |
| 2026-04-24 21:17 | 58.02016 | 16.98917 | 26171 ft | 404 kts | 24° |
| 2026-04-24 21:17 | 58.04441 | 17.01577 | 25917 ft | 403 kts | 24° |
| 2026-04-24 21:17 | 58.06831 | 17.04204 | 25669 ft | 401 kts | 24° |
| 2026-04-24 21:17 | 58.09245 | 17.06866 | 25417 ft | 400 kts | 25° |
| 2026-04-24 21:18 | 58.11654 | 17.09527 | 25164 ft | 398 kts | 25° |
| 2026-04-24 21:18 | 58.14024 | 17.12143 | 24921 ft | 397 kts | 25° |
| 2026-04-24 21:18 | 58.16413 | 17.14776 | 24707 ft | 396 kts | 25° |
| 2026-04-24 21:18 | 58.18805 | 17.17416 | 24465 ft | 396 kts | 25° |
| 2026-04-24 21:19 | 58.21192 | 17.20060 | 24228 ft | 395 kts | 25° |
| 2026-04-24 21:19 | 58.23535 | 17.22665 | 23987 ft | 394 kts | 25° |
| 2026-04-24 21:19 | 58.25902 | 17.25302 | 23750 ft | 393 kts | 25° |
| 2026-04-24 21:19 | 58.28256 | 17.27929 | 23515 ft | 392 kts | 25° |
| 2026-04-24 21:20 | 58.32932 | 17.33155 | 22984 ft | 389 kts | 25° |
| 2026-04-24 21:20 | 58.35253 | 17.35749 | 22701 ft | 388 kts | 25° |
| 2026-04-24 21:20 | 58.37589 | 17.38359 | 22427 ft | 387 kts | 25° |
| 2026-04-24 21:21 | 58.39911 | 17.40964 | 22160 ft | 386 kts | 25° |
| 2026-04-24 21:21 | 58.42222 | 17.43570 | 21911 ft | 385 kts | 26° |
| 2026-04-24 21:21 | 58.44534 | 17.46185 | 21638 ft | 385 kts | 26° |
| 2026-04-24 21:21 | 58.46845 | 17.48802 | 21382 ft | 385 kts | 26° |
| 2026-04-24 21:22 | 58.49120 | 17.51377 | 21123 ft | 384 kts | 26° |
| 2026-04-24 21:22 | 58.51419 | 17.53977 | 20858 ft | 383 kts | 26° |
| 2026-04-24 21:22 | 58.53701 | 17.56562 | 20602 ft | 382 kts | 26° |
| 2026-04-24 21:22 | 58.56004 | 17.59175 | 20345 ft | 380 kts | 26° |
| 2026-04-24 21:23 | 58.58270 | 17.61745 | 20088 ft | 378 kts | 26° |
| 2026-04-24 21:23 | 58.60516 | 17.64301 | 19688 ft | 373 kts | 26° |
| 2026-04-24 21:23 | 58.62724 | 17.66817 | 19213 ft | 371 kts | 26° |
| 2026-04-24 21:23 | 58.64945 | 17.69349 | 18730 ft | 368 kts | 26° |
| 2026-04-24 21:24 | 58.67141 | 17.71859 | 18264 ft | 366 kts | 26° |
| 2026-04-24 21:24 | 58.69331 | 17.74365 | 17709 ft | 365 kts | 26° |
| 2026-04-24 21:24 | 58.71478 | 17.76828 | 17206 ft | 361 kts | 26° |
| 2026-04-24 21:24 | 58.73632 | 17.79306 | 16699 ft | 358 kts | 26° |
| 2026-04-24 21:25 | 58.75764 | 17.81767 | 16193 ft | 355 kts | 26° |
| 2026-04-24 21:25 | 58.77882 | 17.84219 | 15696 ft | 352 kts | 26° |
| 2026-04-24 21:25 | 58.79966 | 17.86629 | 15189 ft | 350 kts | 26° |
| 2026-04-24 21:25 | 58.82047 | 17.88992 | 14693 ft | 347 kts | 25° |
| 2026-04-24 21:26 | 58.84191 | 17.91171 | 14349 ft | 347 kts | 22° |
| 2026-04-24 21:26 | 58.86344 | 17.93190 | 13989 ft | 346 kts | 21° |
| 2026-04-24 21:26 | 58.88538 | 17.95182 | 13626 ft | 344 kts | 21° |
| 2026-04-24 21:26 | 58.90681 | 17.97125 | 13230 ft | 343 kts | 21° |
| 2026-04-24 21:27 | 58.92856 | 17.99120 | 12869 ft | 343 kts | 21° |
| 2026-04-24 21:27 | 58.94993 | 18.01109 | 12503 ft | 342 kts | 21° |
| 2026-04-24 21:27 | 58.97137 | 18.03139 | 12130 ft | 341 kts | 22° |
| 2026-04-24 21:27 | 58.99242 | 18.05187 | 11763 ft | 339 kts | 22° |
| 2026-04-24 21:28 | 59.01357 | 18.07247 | 11409 ft | 337 kts | 22° |
| 2026-04-24 21:28 | 59.03428 | 18.09259 | 11048 ft | 336 kts | 22° |
| 2026-04-24 21:28 | 59.05529 | 18.11294 | 10692 ft | 334 kts | 23° |
| 2026-04-24 21:28 | 59.07589 | 18.13282 | 10345 ft | 332 kts | 23° |
| 2026-04-24 21:29 | 59.09663 | 18.15277 | 9983 ft | 327 kts | 23° |
| 2026-04-24 21:29 | 59.11701 | 18.17235 | 9630 ft | 321 kts | 23° |
| 2026-04-24 21:29 | 59.13664 | 18.19115 | 9330 ft | 314 kts | 23° |
| 2026-04-24 21:29 | 59.15589 | 18.20969 | 9194 ft | 302 kts | 23° |
| 2026-04-24 21:30 | 59.17454 | 18.22775 | 9055 ft | 292 kts | 23° |
| 2026-04-24 21:30 | 59.19240 | 18.24516 | 8903 ft | 283 kts | 23° |
| 2026-04-24 21:30 | 59.20970 | 18.26214 | 8620 ft | 279 kts | 23° |
| 2026-04-24 21:30 | 59.22718 | 18.27929 | 8284 ft | 277 kts | 23° |
| 2026-04-24 21:31 | 59.24430 | 18.29605 | 7954 ft | 275 kts | 23° |
| 2026-04-24 21:31 | 59.26124 | 18.31260 | 7626 ft | 274 kts | 23° |
| 2026-04-24 21:31 | 59.27831 | 18.32926 | 7297 ft | 272 kts | 23° |
| 2026-04-24 21:31 | 59.29527 | 18.34582 | 6992 ft | 270 kts | 23° |
| 2026-04-24 21:32 | 59.31183 | 18.36197 | 6789 ft | 267 kts | 23° |
| 2026-04-24 21:32 | 59.32863 | 18.37838 | 6772 ft | 269 kts | 23° |
| 2026-04-24 21:32 | 59.34528 | 18.39466 | 6771 ft | 270 kts | 23° |
| 2026-04-24 21:32 | 59.36224 | 18.41122 | 6774 ft | 270 kts | 23° |
| 2026-04-24 21:33 | 59.37889 | 18.42752 | 6589 ft | 268 kts | 23° |
| 2026-04-24 21:33 | 59.38993 | 18.43831 | 6374 ft | 267 kts | 23° |
| 2026-04-24 21:33 | 59.41217 | 18.46008 | 5954 ft | 265 kts | 23° |
| 2026-04-24 21:33 | 59.42855 | 18.47609 | 5613 ft | 265 kts | 23° |
| 2026-04-24 21:34 | 59.44506 | 18.49229 | 5276 ft | 264 kts | 23° |
| 2026-04-24 21:34 | 59.46169 | 18.50852 | 4919 ft | 265 kts | 23° |
| 2026-04-24 21:34 | 59.47791 | 18.52441 | 4930 ft | 261 kts | 23° |
| 2026-04-24 21:34 | 59.49448 | 18.54062 | 5011 ft | 266 kts | 23° |
| 2026-04-24 21:35 | 59.51093 | 18.55670 | 5029 ft | 266 kts | 22° |
| 2026-04-24 21:35 | 59.52831 | 18.56749 | 5025 ft | 259 kts | 360° |
| 2026-04-24 21:35 | 59.54624 | 18.56490 | 5026 ft | 257 kts | 349° |
| 2026-04-24 21:35 | 59.56389 | 18.55953 | 5027 ft | 258 kts | 348° |
| 2026-04-24 21:36 | 59.58149 | 18.55386 | 5024 ft | 257 kts | 348° |
| 2026-04-24 21:36 | 59.59920 | 18.54812 | 5017 ft | 257 kts | 348° |
| 2026-04-24 21:36 | 59.61695 | 18.54239 | 5020 ft | 258 kts | 348° |
| 2026-04-24 21:36 | 59.63470 | 18.53666 | 5019 ft | 258 kts | 348° |
| 2026-04-24 21:37 | 59.65230 | 18.53099 | 5017 ft | 257 kts | 348° |
| 2026-04-24 21:37 | 59.66992 | 18.52530 | 5016 ft | 257 kts | 348° |
| 2026-04-24 21:37 | 59.68759 | 18.51959 | 4718 ft | 256 kts | 348° |
| 2026-04-24 21:37 | 59.70545 | 18.51379 | 4105 ft | 264 kts | 347° |
| 2026-04-24 21:38 | 59.72260 | 18.50147 | 3475 ft | 269 kts | 323° |
| 2026-04-24 21:38 | 59.73470 | 18.47436 | 3123 ft | 254 kts | 295° |
| 2026-04-24 21:38 | 59.74046 | 18.44222 | 2706 ft | 243 kts | 277° |
| 2026-04-24 21:38 | 59.73894 | 18.41048 | 2517 ft | 241 kts | 255° |
| 2026-04-24 21:39 | 59.73020 | 18.38201 | 2516 ft | 250 kts | 229° |
| 2026-04-24 21:39 | 59.71840 | 18.35762 | 2510 ft | 242 kts | 229° |
| 2026-04-24 21:39 | 59.70919 | 18.33149 | 2508 ft | 223 kts | 249° |
| 2026-04-24 21:39 | 59.70450 | 18.30323 | 2507 ft | 206 kts | 257° |
| 2026-04-24 21:40 | 59.70119 | 18.27684 | 2504 ft | 191 kts | 258° |
| 2026-04-24 21:40 | 59.69812 | 18.25193 | 2528 ft | 178 kts | 258° |
| 2026-04-24 21:40 | 59.69530 | 18.22923 | 2514 ft | 162 kts | 258° |
| 2026-04-24 21:40 | 59.69272 | 18.20849 | 2435 ft | 151 kts | 258° |
| 2026-04-24 21:41 | 59.69026 | 18.18874 | 2283 ft | 144 kts | 258° |
| 2026-04-24 21:41 | 59.68792 | 18.17001 | 2113 ft | 139 kts | 258° |
| 2026-04-24 21:41 | 59.68562 | 18.15166 | 1932 ft | 135 kts | 258° |
| 2026-04-24 21:41 | 59.68335 | 18.13355 | 1749 ft | 134 kts | 257° |
| 2026-04-24 21:42 | 59.68113 | 18.11586 | 1576 ft | 134 kts | 257° |
| 2026-04-24 21:42 | 59.67887 | 18.09785 | 1395 ft | 133 kts | 256° |
| 2026-04-24 21:42 | 59.67665 | 18.08023 | 1217 ft | 133 kts | 257° |
| 2026-04-24 21:42 | 59.67442 | 18.06250 | 1031 ft | 133 kts | 256° |
| 2026-04-24 21:43 | 59.67218 | 18.04474 | 836 ft | 133 kts | 255° |
| 2026-04-24 21:43 | 59.66998 | 18.02685 | 655 ft | 135 kts | 255° |
| 2026-04-24 21:43 | 59.66776 | 18.00901 | 488 ft | 134 kts | 254° |
| 2026-04-24 21:43 | 59.66544 | 17.99101 | 323 ft | 135 kts | 253° |
| 2026-04-24 21:44 | 59.66315 | 17.97310 | 142 ft | 131 kts | 253° |
| 2026-04-24 21:44 | 59.66128 | 17.95855 | 139 ft | 85 kts | 256° |
| 2026-04-24 21:44 | 59.66027 | 17.95062 | 135 ft | 35 kts | 256° |
| 2026-04-24 21:44 | 59.65963 | 17.94742 | 137 ft | 16 kts | 236° |
| 2026-04-24 21:45 | 59.65899 | 17.94585 | 138 ft | 12 kts | 225° |
| 2026-04-24 21:45 | 59.65834 | 17.94454 | 138 ft | 15 kts | 225° |
| 2026-04-24 21:45 | 59.65785 | 17.94355 | 138 ft | 6 kts | 225° |
| 2026-04-24 21:45 | 59.65774 | 17.94333 | 138 ft | 0 kts | 225° |
| 2026-04-24 21:46 | 59.65770 | 17.94325 | 138 ft | 2 kts | 225° |
| 2026-04-24 21:46 | 59.65750 | 17.94285 | 138 ft | 6 kts | 226° |
| 2026-04-24 21:46 | 59.65716 | 17.94214 | 138 ft | 9 kts | 226° |
| 2026-04-24 21:46 | 59.65663 | 17.94101 | 138 ft | 13 kts | 231° |
| 2026-04-24 21:47 | 59.65613 | 17.93932 | 138 ft | 16 kts | 248° |
| 2026-04-24 21:47 | 59.65593 | 17.93785 | 138 ft | 18 kts | 256° |
| 2026-04-24 21:47 | 59.65548 | 17.93444 | 138 ft | 21 kts | 256° |
| 2026-04-24 21:47 | 59.65511 | 17.93146 | 138 ft | 23 kts | 255° |
| 2026-04-24 21:48 | 59.65460 | 17.92944 | 138 ft | 13 kts | 185° |
| 2026-04-24 21:48 | 59.65396 | 17.92928 | 137 ft | 7 kts | 191° |
| 2026-04-24 21:48 | 59.65373 | 17.92956 | 137 ft | 0 kts | 139° |